Time;durP1;ratioP1;P1;durP2;ratioP2;P2;SDS_P1;SDS_P2;PMS_P1;PMS_P2;Temp;Humidity;BMP_temperature;BMP_pressure;BME280_temperature;BME280_humidity;BME280_pressure;Samples;Min_cycle;Max_cycle;Signal;HPM_P1;HPM_P2
2021/03/31 00:01:56;;;;;;;14.05;7.85;;;11.40;46.20;;;;;;4996863;28;20061;-74
2021/03/31 00:04:22;;;;;;;13.85;7.80;;;11.40;46.90;;;;;;4996395;28;20030;-74
2021/03/31 00:06:47;;;;;;;14.93;7.75;;;11.30;46.30;;;;;;4996788;28;20057;-74
2021/03/31 00:09:13;;;;;;;14.82;7.18;;;11.30;46.40;;;;;;4998001;28;20034;-74
2021/03/31 00:11:39;;;;;;;14.52;7.72;;;11.20;46.50;;;;;;4996369;28;20110;-74
2021/03/31 00:14:05;;;;;;;17.13;7.43;;;11.10;46.70;;;;;;4997642;28;20022;-74
2021/03/31 00:16:31;;;;;;;16.17;7.22;;;11.10;46.80;;;;;;4997131;28;20030;-74
2021/03/31 00:18:56;;;;;;;14.82;6.88;;;11.10;46.80;;;;;;4997207;28;20038;-74
2021/03/31 00:21:22;;;;;;;15.60;7.43;;;11.10;46.90;;;;;;4997051;28;20041;-73
2021/03/31 00:23:47;;;;;;;12.82;6.95;;;11.20;46.70;;;;;;4997100;28;20030;-73
2021/03/31 00:26:13;;;;;;;15.90;7.57;;;11.10;46.60;;;;;;4979805;28;20046;-74
2021/03/31 00:28:39;;;;;;;13.60;7.68;;;11.20;46.40;;;;;;4979687;28;20058;-73
2021/03/31 00:31:05;;;;;;;15.07;7.50;;;11.10;46.40;;;;;;4997353;28;20462;-73
2021/03/31 00:33:31;;;;;;;15.48;7.03;;;11.10;46.30;;;;;;4995571;28;20030;-73
2021/03/31 00:35:57;;;;;;;15.43;7.32;;;11.10;46.40;;;;;;4979393;28;20022;-73
2021/03/31 00:38:23;;;;;;;20.25;7.35;;;11.10;46.40;;;;;;4996397;28;20487;-73
2021/03/31 00:40:50;;;;;;;14.50;7.30;;;11.10;46.30;;;;;;4978757;28;20044;-72
2021/03/31 00:43:17;;;;;;;17.48;8.02;;;11.10;46.30;;;;;;4996070;28;20018;-73
2021/03/31 00:45:44;;;;;;;13.75;7.50;;;11.10;46.40;;;;;;4994878;28;20030;-72
2021/03/31 00:48:14;;;;;;;12.27;7.50;;;11.10;46.60;;;;;;4994722;28;20026;-72
2021/03/31 00:50:48;;;;;;;17.05;8.15;;;11.00;46.70;;;;;;4996141;28;20030;-72
2021/03/31 00:53:20;;;;;;;15.93;7.50;;;10.90;47.00;;;;;;4994516;28;20438;-72
2021/03/31 00:55:46;;;;;;;15.85;8.00;;;10.80;47.40;;;;;;4994833;28;20043;-72
2021/03/31 00:58:13;;;;;;;18.40;7.80;;;10.70;47.60;;;;;;4995574;28;20426;-72
2021/03/31 01:00:38;;;;;;;15.10;7.78;;;10.70;47.70;;;;;;4995986;28;20122;-72
2021/03/31 01:03:04;;;;;;;11.65;6.97;;;10.70;47.90;;;;;;4996073;28;20098;-73
2021/03/31 01:05:31;;;;;;;12.93;7.15;;;10.70;48.00;;;;;;4995537;28;20100;-73
2021/03/31 01:07:57;;;;;;;12.73;6.45;;;10.80;48.10;;;;;;4995772;28;20038;-72
2021/03/31 01:10:45;;;;;;;16.92;6.32;;;10.90;47.90;;;;;;4995766;28;20022;-73
2021/03/31 01:13:28;;;;;;;10.60;6.13;;;10.90;47.60;;;;;;4994958;28;20394;-72
2021/03/31 01:16:24;;;;;;;11.18;6.10;;;11.00;47.60;;;;;;4994296;28;20031;-72
2021/03/31 01:19:15;;;;;;;15.90;7.70;;;10.90;47.50;;;;;;4995449;28;20440;-72
2021/03/31 01:22:02;;;;;;;13.20;6.57;;;10.90;47.50;;;;;;4977929;28;20066;-73
2021/03/31 01:24:43;;;;;;;12.88;7.15;;;10.80;47.50;;;;;;4994024;28;20046;-73
2021/03/31 01:27:20;;;;;;;15.98;6.28;;;10.80;47.70;;;;;;4995292;28;20045;-73
2021/03/31 01:30:20;;;;;;;14.30;7.10;;;10.80;47.80;;;;;;4994110;28;20023;-73
2021/03/31 01:33:19;;;;;;;16.55;7.03;;;10.80;47.80;;;;;;4995257;28;20018;-73
2021/03/31 01:35:45;;;;;;;14.18;7.28;;;10.90;47.80;;;;;;4993936;28;20550;-73
2021/03/31 01:38:13;;;;;;;16.60;7.72;;;10.70;47.90;;;;;;4995029;28;20117;-73
2021/03/31 01:40:46;;;;;;;10.07;6.38;;;10.70;48.20;;;;;;4993628;28;20030;-73
2021/03/31 01:43:14;;;;;;;14.02;7.60;;;10.70;48.30;;;;;;4993365;28;20153;-73
2021/03/31 01:45:41;;;;;;;15.18;8.48;;;10.70;48.40;;;;;;4993754;28;20026;-73
2021/03/31 01:48:14;;;;;;;14.68;7.30;;;10.70;48.40;;;;;;4994636;28;20588;-73
2021/03/31 01:50:42;;;;;;;14.77;8.02;;;10.70;48.40;;;;;;4993732;28;20458;-74
2021/03/31 01:53:08;;;;;;;16.25;8.43;;;10.70;48.50;;;;;;4993509;28;20030;-74
2021/03/31 01:55:34;;;;;;;16.75;8.25;;;10.70;48.60;;;;;;4994770;28;20031;-74
2021/03/31 01:58:02;;;;;;;14.60;8.23;;;10.60;48.60;;;;;;4993368;28;20113;-73
2021/03/31 02:00:32;;;;;;;17.00;8.75;;;10.60;49.00;;;;;;4993474;28;20033;-73
2021/03/31 02:02:59;;;;;;;13.80;8.35;;;10.40;49.50;;;;;;4994507;28;20030;-73
2021/03/31 02:05:25;;;;;;;18.27;9.52;;;10.30;50.10;;;;;;4994523;28;20030;-73
2021/03/31 02:07:52;;;;;;;15.73;8.98;;;10.10;50.50;;;;;;4994234;28;20030;-74
2021/03/31 02:10:20;;;;;;;18.48;8.68;;;10.00;50.90;;;;;;4977464;28;20101;-73
2021/03/31 02:12:46;;;;;;;17.50;8.40;;;9.80;51.50;;;;;;4994443;28;20022;-73
2021/03/31 02:15:18;;;;;;;15.52;8.15;;;9.80;51.80;;;;;;4994574;28;20097;-73
2021/03/31 02:17:46;;;;;;;17.33;8.18;;;9.80;52.00;;;;;;4993066;28;20026;-73
2021/03/31 02:20:15;;;;;;;20.35;9.25;;;9.80;52.00;;;;;;4994229;28;20475;-73
2021/03/31 02:22:41;;;;;;;22.02;9.35;;;9.70;52.20;;;;;;4994248;28;20033;-73
2021/03/31 02:25:07;;;;;;;12.80;7.50;;;9.60;52.40;;;;;;4992785;28;20572;-74
2021/03/31 02:27:33;;;;;;;15.27;7.70;;;9.50;52.90;;;;;;4994249;28;20041;-73
2021/03/31 02:29:59;;;;;;;15.45;7.65;;;9.50;53.10;;;;;;4976819;28;20387;-73
2021/03/31 02:32:26;;;;;;;17.23;8.02;;;9.50;53.10;;;;;;4994112;28;20026;-75
2021/03/31 02:34:54;;;;;;;16.33;8.45;;;9.60;53.00;;;;;;4992834;28;20169;-73
2021/03/31 02:37:21;;;;;;;14.75;8.30;;;9.60;53.10;;;;;;4992585;28;20454;-73
2021/03/31 02:39:48;;;;;;;13.77;7.20;;;9.50;53.10;;;;;;4993705;28;20041;-73
2021/03/31 02:42:17;;;;;;;13.80;7.47;;;9.60;53.20;;;;;;4993895;28;20026;-73
2021/03/31 02:44:48;;;;;;;13.75;6.90;;;9.60;53.10;;;;;;4976306;28;20034;-74
2021/03/31 02:47:16;;;;;;;16.73;7.22;;;9.70;53.00;;;;;;4976377;28;20019;-73
2021/03/31 02:49:46;;;;;;;11.65;6.55;;;9.70;53.00;;;;;;4993704;28;20053;-73
2021/03/31 02:52:13;;;;;;;12.30;7.35;;;9.70;53.00;;;;;;4994036;28;20025;-74
2021/03/31 02:54:41;;;;;;;14.18;7.70;;;9.70;52.90;;;;;;4993813;28;20104;-73
2021/03/31 02:57:08;;;;;;;15.50;7.65;;;9.70;52.80;;;;;;4993507;28;20415;-73
2021/03/31 02:59:35;;;;;;;13.45;8.15;;;9.60;52.70;;;;;;4992613;28;20030;-73
2021/03/31 03:02:00;;;;;;;12.07;6.80;;;9.60;52.80;;;;;;4993706;28;20093;-73
2021/03/31 03:04:26;;;;;;;14.40;6.72;;;9.60;52.90;;;;;;4993493;28;20475;-73
2021/03/31 03:06:52;;;;;;;17.25;7.57;;;9.60;53.00;;;;;;4992341;28;20030;-73
2021/03/31 03:09:18;;;;;;;14.40;7.15;;;9.70;53.10;;;;;;4992318;28;20030;-74
2021/03/31 03:11:45;;;;;;;16.45;7.65;;;9.80;52.90;;;;;;4993660;28;20026;-74
2021/03/31 03:14:12;;;;;;;12.95;7.20;;;9.80;52.80;;;;;;4992339;28;20069;-74
2021/03/31 03:16:37;;;;;;;11.13;6.57;;;9.90;52.70;;;;;;4993554;28;20105;-73
2021/03/31 03:19:03;;;;;;;16.40;8.18;;;9.90;52.50;;;;;;4993490;28;20121;-73
2021/03/31 03:21:31;;;;;;;12.65;7.40;;;9.90;52.30;;;;;;4996075;28;20031;-73
2021/03/31 03:23:59;;;;;;;12.85;7.72;;;9.70;52.40;;;;;;4996287;28;20089;-73
2021/03/31 03:26:26;;;;;;;12.10;7.00;;;9.60;52.80;;;;;;4997563;28;20097;-73
2021/03/31 03:28:53;;;;;;;12.15;7.47;;;9.50;53.10;;;;;;4996156;28;20053;-73
2021/03/31 03:31:19;;;;;;;12.95;7.78;;;9.50;53.50;;;;;;4997396;28;20066;-73
2021/03/31 03:33:44;;;;;;;21.15;8.13;;;9.40;53.60;;;;;;4997406;28;20060;-74
2021/03/31 03:36:13;;;;;;;12.93;7.35;;;9.40;53.60;;;;;;4996028;28;20029;-73
2021/03/31 03:38:39;;;;;;;16.05;8.10;;;9.50;53.60;;;;;;4989270;28;20527;-73
2021/03/31 03:41:06;;;;;;;14.45;7.80;;;9.50;53.60;;;;;;4979715;28;20034;-74
2021/03/31 03:43:32;;;;;;;14.02;7.57;;;9.40;53.80;;;;;;4997221;28;20518;-75
2021/03/31 03:45:58;;;;;;;15.00;8.07;;;9.20;54.20;;;;;;4997076;28;20055;-72
2021/03/31 03:48:24;;;;;;;18.20;8.52;;;9.10;54.70;;;;;;4997032;28;20101;-72
2021/03/31 03:50:50;;;;;;;11.70;7.43;;;9.00;55.10;;;;;;4995511;28;20037;-74
2021/03/31 03:53:17;;;;;;;14.85;7.80;;;8.90;55.60;;;;;;4995711;28;20035;-74
2021/03/31 03:55:43;;;;;;;13.25;8.15;;;8.90;55.80;;;;;;4996903;28;20026;-74
2021/03/31 03:58:09;;;;;;;16.42;8.18;;;8.90;55.80;;;;;;4996911;28;20065;-72
2021/03/31 04:00:35;;;;;;;15.82;8.00;;;8.90;56.00;;;;;;4996865;28;20033;-73
2021/03/31 04:03:01;;;;;;;14.30;7.70;;;8.80;56.00;;;;;;4996677;28;20018;-72
2021/03/31 04:05:27;;;;;;;15.93;8.50;;;8.80;56.20;;;;;;4995575;28;20033;-72
2021/03/31 04:07:54;;;;;;;18.13;7.70;;;8.80;56.30;;;;;;4996775;28;20449;-72
2021/03/31 04:10:23;;;;;;;16.13;7.88;;;8.80;56.40;;;;;;4979424;28;20026;-73
2021/03/31 04:12:51;;;;;;;13.73;7.40;;;8.80;56.40;;;;;;4996649;28;20023;-72
2021/03/31 04:15:17;;;;;;;13.80;7.40;;;8.80;56.50;;;;;;4996587;28;20026;-72
2021/03/31 04:17:44;;;;;;;13.48;7.18;;;8.60;56.60;;;;;;4996627;28;20503;-72
2021/03/31 04:20:13;;;;;;;18.83;8.13;;;8.60;56.90;;;;;;4996425;28;20038;-72
2021/03/31 04:22:40;;;;;;;14.57;7.75;;;8.60;57.10;;;;;;4996396;28;20057;-72
2021/03/31 04:25:08;;;;;;;11.55;7.63;;;8.50;57.30;;;;;;4996061;28;20495;-72
2021/03/31 04:27:35;;;;;;;13.10;7.32;;;8.50;57.40;;;;;;4996084;28;20030;-72
2021/03/31 04:30:07;;;;;;;18.38;8.02;;;8.40;57.60;;;;;;4996367;28;20109;-72
2021/03/31 04:32:33;;;;;;;19.33;8.43;;;8.40;57.70;;;;;;4996209;28;20037;-72
2021/03/31 04:35:01;;;;;;;15.27;8.30;;;8.40;57.80;;;;;;4996175;28;20026;-72
2021/03/31 04:37:27;;;;;;;18.95;8.30;;;8.30;58.80;;;;;;4996077;28;20553;-72
2021/03/31 04:39:52;;;;;;;14.65;7.35;;;8.30;58.30;;;;;;4996004;28;20038;-72
2021/03/31 04:42:18;;;;;;;14.25;7.93;;;8.40;58.10;;;;;;4995997;28;20371;-73
2021/03/31 04:44:44;;;;;;;15.40;7.78;;;8.50;58.00;;;;;;4996013;28;20041;-73
2021/03/31 04:47:09;;;;;;;18.15;8.57;;;8.50;57.70;;;;;;4995884;28;20057;-73
2021/03/31 04:49:35;;;;;;;15.63;7.85;;;8.50;57.60;;;;;;4995999;28;20034;-73
2021/03/31 04:52:00;;;;;;;11.90;7.07;;;8.50;57.60;;;;;;4995875;28;20026;-73
2021/03/31 04:54:26;;;;;;;12.80;8.00;;;8.60;57.50;;;;;;4995861;28;20026;-72
2021/03/31 04:56:52;;;;;;;22.77;6.72;;;8.70;57.20;;;;;;4995779;28;20505;-75
2021/03/31 04:59:18;;;;;;;19.60;7.28;;;8.80;58.40;;;;;;4995658;28;20061;-75
2021/03/31 05:01:43;;;;;;;22.15;6.95;;;9.20;69.80;;;;;;4995806;28;20026;-74
2021/03/31 05:04:09;;;;;;;11.75;5.70;;;9.70;67.90;;;;;;4995587;28;20038;-74
2021/03/31 05:06:35;;;;;;;14.48;6.70;;;10.00;66.40;;;;;;4995637;28;20177;-73
2021/03/31 05:09:00;;;;;;;13.10;7.13;;;10.20;63.90;;;;;;4995432;28;20057;-74
2021/03/31 05:11:27;;;;;;;15.25;7.82;;;10.30;59.60;;;;;;4995353;28;20073;-74
2021/03/31 05:13:53;;;;;;;17.55;7.72;;;10.30;57.90;;;;;;4995242;28;20041;-74
2021/03/31 05:16:18;;;;;;;15.70;7.32;;;10.30;57.30;;;;;;4995401;28;20031;-75
2021/03/31 05:18:44;;;;;;;21.15;7.85;;;10.20;55.90;;;;;;4995145;28;20029;-75
2021/03/31 05:21:10;;;;;;;19.92;7.43;;;10.30;55.50;;;;;;4995262;28;20117;-75
2021/03/31 05:23:36;;;;;;;11.95;6.60;;;10.20;54.60;;;;;;4995133;28;20102;-74
2021/03/31 05:26:02;;;;;;;15.13;7.32;;;10.30;56.00;;;;;;4994811;28;20073;-74
2021/03/31 05:28:28;;;;;;;16.13;7.03;;;10.40;54.90;;;;;;4995188;28;20061;-74
2021/03/31 05:30:53;;;;;;;13.40;6.53;;;10.50;54.90;;;;;;4994854;28;20054;-75
2021/03/31 05:33:19;;;;;;;14.77;6.32;;;10.80;54.20;;;;;;4995125;28;20379;-75
2021/03/31 05:35:45;;;;;;;14.05;6.50;;;10.90;53.20;;;;;;4994919;28;20086;-75
2021/03/31 05:38:11;;;;;;;15.35;7.40;;;11.00;52.40;;;;;;4994924;28;20026;-74
2021/03/31 05:40:37;;;;;;;17.80;7.88;;;11.10;51.80;;;;;;4994829;28;20440;-75
2021/03/31 05:43:02;;;;;;;14.88;7.40;;;11.00;51.10;;;;;;4993287;28;20031;-77
2021/03/31 05:45:29;;;;;;;17.02;8.05;;;10.90;51.00;;;;;;4998620;28;20038;-76
2021/03/31 05:47:55;;;;;;;14.30;7.00;;;11.00;50.80;;;;;;5004057;28;20025;-76
2021/03/31 05:50:21;;;;;;;16.40;8.32;;;11.10;50.80;;;;;;5007927;28;20037;-75
2021/03/31 05:52:47;;;;;;;14.63;6.90;;;11.10;50.30;;;;;;4996502;28;20343;-75
2021/03/31 05:55:15;;;;;;;12.82;7.22;;;11.10;50.00;;;;;;4994264;28;20025;-74
2021/03/31 05:57:41;;;;;;;16.08;7.65;;;11.30;50.00;;;;;;4994442;28;20077;-74
2021/03/31 06:00:15;;;;;;;12.25;6.85;;;11.30;49.60;;;;;;4994447;28;20039;-74
2021/03/31 06:02:42;;;;;;;21.48;9.00;;;11.50;49.40;;;;;;4969644;28;20045;-74
2021/03/31 06:05:09;;;;;;;17.85;7.55;;;11.60;48.30;;;;;;4994311;28;20042;-74
2021/03/31 06:07:35;;;;;;;18.90;7.53;;;11.70;48.10;;;;;;4994339;28;20030;-75
2021/03/31 06:10:14;;;;;;;19.15;8.40;;;11.70;48.60;;;;;;4994185;28;20033;-76
2021/03/31 06:12:42;;;;;;;13.93;7.35;;;11.70;47.80;;;;;;4976305;28;20416;-75
2021/03/31 06:15:16;;;;;;;13.80;7.30;;;11.70;48.10;;;;;;4993858;28;20376;-75
2021/03/31 06:17:49;;;;;;;17.35;8.25;;;11.70;48.20;;;;;;4994357;28;20117;-75
2021/03/31 06:20:55;;;;;;;18.92;7.80;;;11.80;48.20;;;;;;4992848;28;20038;-77
2021/03/31 06:26:24;;;;;;;19.73;7.82;;;12.00;47.70;;;;;;4994010;28;20042;-76
2021/03/31 06:29:10;;;;;;;17.13;8.15;;;12.00;47.50;;;;;;4993874;28;20071;-76
2021/03/31 06:31:42;;;;;;;19.23;8.07;;;12.10;47.30;;;;;;4993878;28;20026;-74
2021/03/31 06:34:18;;;;;;;18.83;7.65;;;12.10;47.30;;;;;;4976657;28;20093;-75
2021/03/31 06:36:51;;;;;;;12.70;6.47;;;12.20;47.10;;;;;;4992602;28;20470;-75
2021/03/31 06:39:35;;;;;;;14.70;7.57;;;12.30;47.00;;;;;;4996561;28;20034;-76
2021/03/31 06:42:28;;;;;;;14.55;7.30;;;12.40;47.30;;;;;;5002667;28;20036;-76
2021/03/31 06:49:50;;;;;;;13.40;6.55;;;12.90;47.40;;;;;;4993633;28;20026;-74
2021/03/31 06:52:16;;;;;;;14.05;7.28;;;13.00;47.90;;;;;;4983836;28;20034;-75
2021/03/31 06:54:49;;;;;;;14.48;7.00;;;13.30;46.80;;;;;;4995059;28;20028;-75
2021/03/31 06:57:23;;;;;;;12.65;6.70;;;13.50;45.80;;;;;;4975690;28;20030;-75
2021/03/31 07:00:10;;;;;;;17.60;7.00;;;13.60;45.10;;;;;;4993360;28;20545;-75
2021/03/31 07:02:37;;;;;;;14.75;7.07;;;13.70;44.60;;;;;;4993131;28;20431;-75
2021/03/31 07:05:05;;;;;;;15.18;6.65;;;13.90;44.10;;;;;;4992911;28;20429;-74
2021/03/31 07:07:38;;;;;;;17.25;7.55;;;14.00;43.70;;;;;;4992836;28;20022;-75
2021/03/31 07:10:15;;;;;;;15.63;5.50;;;14.20;43.10;;;;;;4992782;28;20023;-75
2021/03/31 07:12:46;;;;;;;14.02;6.32;;;14.20;42.80;;;;;;4975381;28;20455;-75
2021/03/31 07:15:20;;;;;;;12.43;6.22;;;14.30;42.70;;;;;;4992746;28;20098;-75
2021/03/31 07:17:53;;;;;;;11.70;6.13;;;14.30;42.80;;;;;;4993205;28;20026;-75
2021/03/31 07:20:18;;;;;;;11.75;5.80;;;14.40;43.40;;;;;;4992659;28;20384;-75
2021/03/31 07:22:44;;;;;;;11.30;6.05;;;14.60;43.10;;;;;;4993148;28;20023;-75
2021/03/31 07:25:12;;;;;;;46.33;24.55;;;14.60;42.40;;;;;;4992924;28;20403;-74
2021/03/31 07:27:39;;;;;;;21.23;9.30;;;14.50;42.20;;;;;;4975589;28;20412;-75
2021/03/31 07:30:10;;;;;;;22.13;7.53;;;14.40;42.40;;;;;;4992792;28;20110;-75
2021/03/31 07:32:57;;;;;;;18.63;7.57;;;14.40;42.70;;;;;;4992845;28;20023;-75
2021/03/31 07:35:29;;;;;;;15.35;6.72;;;14.50;43.00;;;;;;4993243;28;20053;-74
2021/03/31 07:37:58;;;;;;;13.98;7.03;;;14.60;42.80;;;;;;4975715;28;20018;-74
2021/03/31 07:40:25;;;;;;;25.85;7.47;;;14.70;42.70;;;;;;4993685;28;20068;-74
2021/03/31 07:43:02;;;;;;;17.70;6.60;;;14.60;42.80;;;;;;4975512;28;20027;-74
2021/03/31 07:45:39;;;;;;;23.52;7.35;;;14.60;43.40;;;;;;4992919;28;20030;-74
2021/03/31 07:48:06;;;;;;;14.32;6.75;;;14.60;43.90;;;;;;4992749;28;20023;-74
2021/03/31 07:50:33;;;;;;;32.70;7.65;;;14.60;44.10;;;;;;4993111;28;20018;-74
2021/03/31 07:53:00;;;;;;;20.85;6.78;;;14.60;44.30;;;;;;4959601;28;20030;-74
2021/03/31 07:55:46;;;;;;;22.48;6.30;;;14.60;44.30;;;;;;4992924;28;20023;-75
2021/03/31 07:58:24;;;;;;;32.00;9.05;;;14.70;44.30;;;;;;4992802;28;20033;-75
2021/03/31 08:03:26;;;;;;;19.73;7.60;;;14.60;43.40;;;;;;4992992;28;20418;-74
2021/03/31 08:06:20;;;;;;;29.13;8.82;;;14.50;43.80;;;;;;4995414;28;20076;-73
2021/03/31 08:08:50;;;;;;;19.33;7.97;;;14.70;43.90;;;;;;5002231;28;20030;-74
2021/03/31 08:11:40;;;;;;;23.92;7.80;;;14.80;43.20;;;;;;5006439;28;20034;-74
2021/03/31 08:14:07;;;;;;;19.88;7.15;;;14.90;42.70;;;;;;5001032;28;20033;-75
2021/03/31 08:16:44;;;;;;;24.52;6.13;;;15.00;42.60;;;;;;4995657;28;20504;-74
2021/03/31 08:19:15;;;;;;;22.08;7.05;;;15.10;42.60;;;;;;4996466;28;20444;-74
2021/03/31 08:21:41;;;;;;;23.23;6.47;;;15.20;42.40;;;;;;4978673;28;20486;-72
2021/03/31 08:24:08;;;;;;;18.40;6.72;;;15.30;42.20;;;;;;4978090;28;20465;-73
2021/03/31 08:26:40;;;;;;;21.13;7.85;;;15.30;41.20;;;;;;4995870;28;20380;-74
2021/03/31 08:29:16;;;;;;;21.30;7.60;;;15.30;40.80;;;;;;4996191;28;20054;-75
2021/03/31 08:31:42;;;;;;;14.57;6.68;;;15.50;41.30;;;;;;4996169;28;20460;-74
2021/03/31 08:34:09;;;;;;;16.55;6.88;;;15.60;40.90;;;;;;4996045;28;20558;-74
2021/03/31 08:36:39;;;;;;;14.00;5.80;;;15.80;40.70;;;;;;4978706;28;20029;-74
2021/03/31 08:39:07;;;;;;;12.30;5.57;;;16.00;40.50;;;;;;4995932;28;20033;-75
2021/03/31 08:41:33;;;;;;;13.60;5.97;;;16.20;40.50;;;;;;4995907;28;20035;-74
2021/03/31 08:44:11;;;;;;;13.32;6.68;;;16.40;40.80;;;;;;4993250;28;20031;-72
2021/03/31 08:46:38;;;;;;;13.02;7.00;;;16.50;40.30;;;;;;4996469;28;20031;-75
2021/03/31 08:49:04;;;;;;;13.43;7.45;;;16.50;40.60;;;;;;4961769;28;20063;-76
2021/03/31 08:51:30;;;;;;;20.63;7.90;;;16.60;40.40;;;;;;4996647;28;20451;-75
2021/03/31 08:54:03;;;;;;;10.73;6.30;;;16.90;40.30;;;;;;4991604;28;20026;-75
2021/03/31 08:56:29;;;;;;;19.40;7.30;;;17.10;39.90;;;;;;5014643;28;20033;-75
2021/03/31 08:58:56;;;;;;;25.73;7.65;;;17.20;39.60;;;;;;4997865;28;20418;-74
2021/03/31 09:01:32;;;;;;;13.15;6.90;;;17.20;38.70;;;;;;5011628;28;20037;-75
2021/03/31 09:04:19;;;;;;;;;;;17.40;39.00;;;;;;4997713;28;20029;-77
2021/03/31 09:06:46;;;;;;;;;;;17.60;39.00;;;;;;5015472;28;19921;-77
2021/03/31 09:09:13;;;;;;;14.63;6.97;;;17.80;38.50;;;;;;5014705;28;19999;-77
2021/03/31 09:11:39;;;;;;;17.35;6.80;;;17.90;38.40;;;;;;5014790;28;20041;-76
2021/03/31 09:14:24;;;;;;;13.85;7.28;;;18.10;38.40;;;;;;4997026;28;20025;-75
2021/03/31 09:17:04;;;;;;;14.40;7.13;;;18.30;38.00;;;;;;5014009;28;20026;-74
2021/03/31 09:19:33;;;;;;;14.15;7.05;;;18.40;36.40;;;;;;5013494;28;20296;-75
2021/03/31 09:22:18;;;;;;;12.80;7.25;;;18.40;35.50;;;;;;5014948;28;20026;-75
2021/03/31 09:24:52;;;;;;;15.45;6.70;;;18.60;35.10;;;;;;5015026;28;20459;-75
2021/03/31 09:27:24;;;;;;;15.68;9.63;;;18.80;36.10;;;;;;4997095;28;20061;-73
2021/03/31 09:29:53;;;;;;;16.48;8.95;;;19.10;36.00;;;;;;5014281;28;20094;-75
2021/03/31 09:32:25;;;;;;;12.73;8.23;;;19.40;35.70;;;;;;5014450;28;20022;-74
2021/03/31 09:34:51;;;;;;;16.75;7.20;;;19.60;34.90;;;;;;4997022;28;20029;-73
2021/03/31 09:37:20;;;;;;;13.70;8.00;;;19.80;33.90;;;;;;5015062;28;20030;-75
2021/03/31 09:39:54;;;;;;;18.48;7.97;;;20.00;33.20;;;;;;5013574;28;20049;-75
2021/03/31 09:42:27;;;;;;;19.42;8.10;;;20.20;33.20;;;;;;4996799;28;20117;-73
2021/03/31 09:44:54;;;;;;;17.65;6.85;;;20.30;32.00;;;;;;5013552;28;20127;-74
2021/03/31 09:47:21;;;;;;;13.93;6.40;;;20.40;31.70;;;;;;5013355;28;20025;-77
2021/03/31 09:49:52;;;;;;;21.02;5.88;;;20.60;31.90;;;;;;5013652;28;20037;-78
2021/03/31 09:52:25;;;;;;;13.32;6.57;;;20.80;31.70;;;;;;5013569;28;20018;-74
2021/03/31 09:54:50;;;;;;;16.35;6.72;;;21.10;31.70;;;;;;5014197;28;20021;-74
2021/03/31 09:57:16;;;;;;;13.38;6.63;;;21.10;30.30;;;;;;4995730;28;20030;-74
2021/03/31 09:59:42;;;;;;;15.38;7.57;;;21.20;29.90;;;;;;5014052;28;20038;-74
2021/03/31 10:02:09;;;;;;;17.08;6.63;;;21.30;29.90;;;;;;4995658;28;20083;-75
2021/03/31 10:04:38;;;;;;;13.07;5.57;;;21.40;29.00;;;;;;5012394;28;20426;-77
2021/03/31 10:07:20;;;;;;;10.68;4.80;;;21.60;28.10;;;;;;5013067;28;20533;-75
2021/03/31 10:09:50;;;;;;;12.52;5.38;;;21.50;26.10;;;;;;5013078;28;20117;-74
2021/03/31 10:12:31;;;;;;;11.15;5.18;;;21.70;24.50;;;;;;5013493;28;20029;-73
2021/03/31 10:14:59;;;;;;;17.35;5.65;;;21.80;23.40;;;;;;5013582;28;20033;-73
2021/03/31 10:17:30;;;;;;;14.65;6.50;;;21.90;22.40;;;;;;5013351;28;20040;-73
2021/03/31 10:20:11;;;;;;;12.63;5.90;;;22.00;22.40;;;;;;5013102;28;20038;-74
2021/03/31 10:22:37;;;;;;;22.23;15.50;;;22.20;22.40;;;;;;5013104;28;20394;-75
2021/03/31 10:25:06;;;;;;;15.32;10.40;;;22.40;22.20;;;;;;5013044;28;20061;-74
2021/03/31 10:27:46;;;;;;;11.38;7.18;;;22.50;22.20;;;;;;5012273;28;20020;-75
2021/03/31 10:30:30;;;;;;;8.82;6.65;;;22.60;21.70;;;;;;5013260;28;20057;-74
2021/03/31 10:32:57;;;;;;;11.85;6.70;;;22.70;21.60;;;;;;5013351;28;20022;-74
2021/03/31 10:35:49;;;;;;;10.13;6.82;;;22.70;21.00;;;;;;5013410;28;20111;-75
2021/03/31 10:49:16;;;;;;;10.00;5.28;;;23.50;19.70;;;;;;5012657;28;20041;-74
2021/03/31 10:51:55;;;;;;;5.40;4.03;;;23.50;19.00;;;;;;5013113;28;20018;-75
2021/03/31 10:54:24;;;;;;;5.78;4.55;;;23.60;18.00;;;;;;5012745;28;20050;-74
2021/03/31 10:56:53;;;;;;;8.05;5.47;;;23.80;17.10;;;;;;4994928;28;20026;-77
2021/03/31 10:59:19;;;;;;;13.70;8.73;;;24.00;16.70;;;;;;4995146;28;20041;-75
2021/03/31 11:01:45;;;;;;;15.38;8.43;;;23.90;16.90;;;;;;5012836;28;20532;-75
2021/03/31 11:04:11;;;;;;;8.35;5.88;;;24.00;16.40;;;;;;4995321;28;20022;-75
2021/03/31 11:06:36;;;;;;;9.63;5.22;;;24.30;16.30;;;;;;4995173;28;20022;-74
2021/03/31 11:09:03;;;;;;;9.80;5.97;;;24.50;15.90;;;;;;5012770;28;20117;-73
2021/03/31 11:11:28;;;;;;;9.32;5.55;;;24.70;15.50;;;;;;4995192;28;20025;-74
2021/03/31 11:13:54;;;;;;;10.43;5.82;;;24.80;15.80;;;;;;5012678;28;20034;-74
2021/03/31 11:16:19;;;;;;;8.98;5.45;;;24.90;15.80;;;;;;5012498;28;20026;-74
2021/03/31 11:19:01;;;;;;;12.68;5.82;;;24.90;15.90;;;;;;5012644;28;20450;-73
2021/03/31 11:22:02;;;;;;;8.73;5.60;;;25.10;15.60;;;;;;5012551;28;20434;-75
2021/03/31 11:26:59;;;;;;;12.90;5.70;;;25.50;14.90;;;;;;5012852;28;20196;-75
2021/03/31 11:29:25;;;;;;;10.25;5.78;;;25.50;14.60;;;;;;5012636;28;20479;-75
2021/03/31 11:31:50;;;;;;;13.38;6.20;;;25.20;14.60;;;;;;5012626;28;20101;-73
2021/03/31 11:34:16;;;;;;;10.60;5.05;;;25.30;14.60;;;;;;5012758;28;20029;-74
2021/03/31 11:36:41;;;;;;;8.40;4.90;;;25.20;14.70;;;;;;5012875;28;20026;-75
2021/03/31 11:39:07;;;;;;;11.88;4.38;;;25.30;14.60;;;;;;5012365;28;20030;-75
2021/03/31 11:41:33;;;;;;;9.20;4.85;;;25.40;14.70;;;;;;5016311;28;20089;-75
2021/03/31 11:43:58;;;;;;;7.07;5.18;;;25.80;14.60;;;;;;4998792;28;20026;-75
2021/03/31 11:46:24;;;;;;;8.25;5.35;;;25.70;14.70;;;;;;5016468;28;20026;-75
2021/03/31 11:48:49;;;;;;;7.85;4.32;;;25.60;14.30;;;;;;5016378;28;20438;-75
2021/03/31 11:51:15;;;;;;;9.95;4.93;;;25.80;13.80;;;;;;5016263;28;20052;-75
2021/03/31 11:53:41;;;;;;;11.85;5.03;;;25.70;14.00;;;;;;5016392;28;20109;-75
2021/03/31 11:56:07;;;;;;;6.00;3.80;;;26.00;13.90;;;;;;5016129;28;20088;-75
2021/03/31 11:58:33;;;;;;;7.82;4.50;;;26.20;14.30;;;;;;5016142;28;20052;-74
2021/03/31 12:00:59;;;;;;;9.20;5.93;;;26.60;14.40;;;;;;5016140;28;20034;-75
2021/03/31 12:03:25;;;;;;;8.90;5.40;;;26.90;14.20;;;;;;4998795;28;20142;-73
2021/03/31 12:05:51;;;;;;;7.32;4.72;;;27.00;14.40;;;;;;4998512;28;20029;-78
2021/03/31 12:08:17;;;;;;;7.55;4.65;;;26.40;14.00;;;;;;4998355;28;20026;-78
2021/03/31 12:10:43;;;;;;;9.60;5.18;;;26.50;14.30;;;;;;4998509;28;20084;-73
2021/03/31 12:13:09;;;;;;;6.20;4.53;;;26.30;14.20;;;;;;5015670;28;20029;-73
2021/03/31 12:15:35;;;;;;;11.05;5.55;;;26.40;14.30;;;;;;5016120;28;20360;-72
2021/03/31 12:18:00;;;;;;;7.28;4.68;;;26.20;14.40;;;;;;4998325;28;20030;-73
2021/03/31 12:20:26;;;;;;;8.18;4.22;;;26.40;14.20;;;;;;4998306;28;20072;-74
2021/03/31 12:22:51;;;;;;;8.80;4.50;;;26.70;14.10;;;;;;4998020;28;20363;-73
2021/03/31 12:25:20;;;;;;;9.20;4.32;;;27.00;14.40;;;;;;5015341;28;20592;-72
2021/03/31 12:27:47;;;;;;;6.28;3.72;;;27.30;14.00;;;;;;5015899;28;20026;-74
2021/03/31 12:30:14;;;;;;;13.15;4.32;;;27.60;13.60;;;;;;5015610;28;20034;-74
2021/03/31 12:32:40;;;;;;;6.55;4.07;;;27.60;13.50;;;;;;5015796;28;20022;-76
2021/03/31 12:35:07;;;;;;;6.70;4.15;;;27.70;13.20;;;;;;5015946;28;20041;-74
2021/03/31 12:37:33;;;;;;;11.95;4.18;;;27.90;12.90;;;;;;5015697;28;20425;-74
2021/03/31 12:39:59;;;;;;;8.60;3.72;;;28.20;12.60;;;;;;5015647;28;20033;-73
2021/03/31 12:42:25;;;;;;;7.13;3.55;;;28.50;12.20;;;;;;5015926;28;20076;-74
2021/03/31 12:44:51;;;;;;;6.15;3.33;;;28.70;11.90;;;;;;5015634;28;20458;-74
2021/03/31 12:47:19;;;;;;;8.77;3.63;;;29.00;12.20;;;;;;5015641;28;20065;-74
2021/03/31 12:49:47;;;;;;;4.65;3.35;;;29.20;12.10;;;;;;5015612;28;20054;-74
2021/03/31 12:52:15;;;;;;;5.03;3.70;;;29.20;11.80;;;;;;5014329;28;20030;-74
2021/03/31 12:57:12;;;;;;;8.20;3.28;;;28.60;11.10;;;;;;5023293;28;20040;-74
2021/03/31 12:59:38;;;;;;;5.07;3.03;;;28.80;10.90;;;;;;5024048;28;20026;-74
2021/03/31 13:02:04;;;;;;;5.68;2.65;;;29.10;11.20;;;;;;5017268;28;20100;-74
2021/03/31 13:04:29;;;;;;;6.95;3.03;;;29.30;11.30;;;;;;5017059;28;20368;-74
2021/03/31 13:06:55;;;;;;;6.65;2.55;;;29.30;11.00;;;;;;5019497;28;20022;-74
2021/03/31 13:09:22;;;;;;;7.95;3.53;;;29.60;10.70;;;;;;5020695;28;20036;-74
2021/03/31 13:11:49;;;;;;;12.50;3.22;;;29.40;10.70;;;;;;5018034;28;20064;-74
2021/03/31 13:17:15;;;;;;;7.80;3.40;;;29.00;11.00;;;;;;5023682;28;20090;-77
2021/03/31 13:25:10;;;;;;;8.55;3.53;;;28.40;11.30;;;;;;5015899;28;20045;-76
2021/03/31 13:30:24;;;;;;;14.20;4.28;;;28.50;11.60;;;;;;5015439;28;20034;-74